sensor_id;sensor_type;location;lat;lon;timestamp;temperature;humidity
65404;DHT22;52014;52.088;5.096;2023-03-01T00:01:54;2.80;99.90
65404;DHT22;52014;52.088;5.096;2023-03-01T00:04:19;2.80;99.90
65404;DHT22;52014;52.088;5.096;2023-03-01T00:06:45;2.80;99.90
65404;DHT22;52014;52.088;5.096;2023-03-01T00:09:13;2.80;99.90
65404;DHT22;52014;52.088;5.096;2023-03-01T00:11:39;2.80;99.90
65404;DHT22;52014;52.088;5.096;2023-03-01T00:14:05;2.70;99.90
65404;DHT22;52014;52.088;5.096;2023-03-01T00:16:32;2.70;99.90
65404;DHT22;52014;52.088;5.096;2023-03-01T00:18:59;2.70;99.90
65404;DHT22;52014;52.088;5.096;2023-03-01T00:21:24;2.70;99.90
65404;DHT22;52014;52.088;5.096;2023-03-01T00:23:50;2.60;99.90
65404;DHT22;52014;52.088;5.096;2023-03-01T00:26:17;2.60;99.90
65404;DHT22;52014;52.088;5.096;2023-03-01T00:28:43;2.60;99.90
65404;DHT22;52014;52.088;5.096;2023-03-01T00:31:10;2.60;99.90
65404;DHT22;52014;52.088;5.096;2023-03-01T00:33:36;2.60;99.90
65404;DHT22;52014;52.088;5.096;2023-03-01T00:36:02;2.60;99.90
65404;DHT22;52014;52.088;5.096;2023-03-01T00:38:28;2.50;99.90
65404;DHT22;52014;52.088;5.096;2023-03-01T00:40:53;2.50;99.90
65404;DHT22;52014;52.088;5.096;2023-03-01T00:43:19;2.50;99.90
65404;DHT22;52014;52.088;5.096;2023-03-01T00:45:44;2.50;99.90
65404;DHT22;52014;52.088;5.096;2023-03-01T00:48:10;2.50;99.90
65404;DHT22;52014;52.088;5.096;2023-03-01T00:50:35;2.50;99.90
65404;DHT22;52014;52.088;5.096;2023-03-01T00:53:01;2.50;99.90
65404;DHT22;52014;52.088;5.096;2023-03-01T00:55:26;2.40;99.90
65404;DHT22;52014;52.088;5.096;2023-03-01T00:57:52;2.40;99.90
65404;DHT22;52014;52.088;5.096;2023-03-01T01:00:18;2.40;99.90
65404;DHT22;52014;52.088;5.096;2023-03-01T01:02:44;2.40;99.90
65404;DHT22;52014;52.088;5.096;2023-03-01T01:05:09;2.30;99.90
65404;DHT22;52014;52.088;5.096;2023-03-01T01:07:35;2.40;99.90
65404;DHT22;52014;52.088;5.096;2023-03-01T01:10:00;2.30;99.90
65404;DHT22;52014;52.088;5.096;2023-03-01T01:12:26;2.40;99.90
65404;DHT22;52014;52.088;5.096;2023-03-01T01:14:51;2.30;99.90
65404;DHT22;52014;52.088;5.096;2023-03-01T01:17:17;2.30;99.90
65404;DHT22;52014;52.088;5.096;2023-03-01T01:19:42;2.30;99.90
65404;DHT22;52014;52.088;5.096;2023-03-01T01:22:08;2.30;99.90
65404;DHT22;52014;52.088;5.096;2023-03-01T01:24:34;2.30;99.90
65404;DHT22;52014;52.088;5.096;2023-03-01T01:27:00;2.30;99.90
65404;DHT22;52014;52.088;5.096;2023-03-01T01:29:25;2.30;99.90
65404;DHT22;52014;52.088;5.096;2023-03-01T01:31:51;2.30;99.90
65404;DHT22;52014;52.088;5.096;2023-03-01T01:34:18;2.30;99.90
65404;DHT22;52014;52.088;5.096;2023-03-01T01:36:44;2.20;99.90
65404;DHT22;52014;52.088;5.096;2023-03-01T01:39:12;2.10;99.90
65404;DHT22;52014;52.088;5.096;2023-03-01T01:41:39;2.10;99.90
65404;DHT22;52014;52.088;5.096;2023-03-01T01:44:26;2.20;99.90
65404;DHT22;52014;52.088;5.096;2023-03-01T01:46:59;2.10;99.90
65404;DHT22;52014;52.088;5.096;2023-03-01T01:49:30;2.10;99.90
65404;DHT22;52014;52.088;5.096;2023-03-01T01:52:04;2.10;99.90
65404;DHT22;52014;52.088;5.096;2023-03-01T01:57:01;2.10;99.90
65404;DHT22;52014;52.088;5.096;2023-03-01T01:59:28;2.10;99.90
65404;DHT22;52014;52.088;5.096;2023-03-01T02:01:54;2.10;99.90
65404;DHT22;52014;52.088;5.096;2023-03-01T02:04:20;2.10;99.90
65404;DHT22;52014;52.088;5.096;2023-03-01T02:07:09;2.10;99.90
65404;DHT22;52014;52.088;5.096;2023-03-01T02:09:31;2.00;99.90
65404;DHT22;52014;52.088;5.096;2023-03-01T02:11:57;2.00;99.90
65404;DHT22;52014;52.088;5.096;2023-03-01T02:14:23;2.00;99.90
65404;DHT22;52014;52.088;5.096;2023-03-01T02:16:49;2.00;99.90
65404;DHT22;52014;52.088;5.096;2023-03-01T02:19:30;2.00;99.90
65404;DHT22;52014;52.088;5.096;2023-03-01T02:22:04;2.00;99.90
65404;DHT22;52014;52.088;5.096;2023-03-01T02:24:35;1.90;99.90
65404;DHT22;52014;52.088;5.096;2023-03-01T02:27:04;2.00;99.90
65404;DHT22;52014;52.088;5.096;2023-03-01T02:29:30;1.90;99.90
65404;DHT22;52014;52.088;5.096;2023-03-01T02:31:56;1.90;99.90
65404;DHT22;52014;52.088;5.096;2023-03-01T02:34:24;1.90;99.90
65404;DHT22;52014;52.088;5.096;2023-03-01T02:39:54;1.90;99.90
65404;DHT22;52014;52.088;5.096;2023-03-01T02:42:23;2.00;99.90
65404;DHT22;52014;52.088;5.096;2023-03-01T02:44:51;1.90;99.90
65404;DHT22;52014;52.088;5.096;2023-03-01T02:47:16;1.90;99.90
65404;DHT22;52014;52.088;5.096;2023-03-01T02:49:42;1.90;99.90
65404;DHT22;52014;52.088;5.096;2023-03-01T02:57:17;1.80;99.90
65404;DHT22;52014;52.088;5.096;2023-03-01T02:59:43;1.80;99.90
65404;DHT22;52014;52.088;5.096;2023-03-01T03:02:18;1.80;99.90
65404;DHT22;52014;52.088;5.096;2023-03-01T03:04:45;1.80;99.90
65404;DHT22;52014;52.088;5.096;2023-03-01T03:07:11;1.70;99.90
65404;DHT22;52014;52.088;5.096;2023-03-01T03:09:36;1.80;99.90
65404;DHT22;52014;52.088;5.096;2023-03-01T03:12:01;1.80;99.90
65404;DHT22;52014;52.088;5.096;2023-03-01T03:14:27;1.80;99.90
65404;DHT22;52014;52.088;5.096;2023-03-01T03:16:52;1.80;99.90
65404;DHT22;52014;52.088;5.096;2023-03-01T03:19:18;1.80;99.90
65404;DHT22;52014;52.088;5.096;2023-03-01T03:21:44;1.70;99.90
65404;DHT22;52014;52.088;5.096;2023-03-01T03:24:09;1.80;99.90
65404;DHT22;52014;52.088;5.096;2023-03-01T03:26:34;1.70;99.90
65404;DHT22;52014;52.088;5.096;2023-03-01T03:29:00;1.70;99.90
65404;DHT22;52014;52.088;5.096;2023-03-01T03:31:26;1.70;99.90
65404;DHT22;52014;52.088;5.096;2023-03-01T03:33:52;1.70;99.90
65404;DHT22;52014;52.088;5.096;2023-03-01T03:36:18;1.70;99.90
65404;DHT22;52014;52.088;5.096;2023-03-01T03:38:44;1.70;99.90
65404;DHT22;52014;52.088;5.096;2023-03-01T03:41:11;1.70;99.90
65404;DHT22;52014;52.088;5.096;2023-03-01T03:43:37;1.70;99.90
65404;DHT22;52014;52.088;5.096;2023-03-01T03:46:03;1.60;99.90
65404;DHT22;52014;52.088;5.096;2023-03-01T03:48:31;1.60;99.90
65404;DHT22;52014;52.088;5.096;2023-03-01T03:50:57;1.50;99.90
65404;DHT22;52014;52.088;5.096;2023-03-01T03:53:24;1.60;99.90
65404;DHT22;52014;52.088;5.096;2023-03-01T03:55:49;1.60;99.90
65404;DHT22;52014;52.088;5.096;2023-03-01T03:58:17;1.50;99.90
65404;DHT22;52014;52.088;5.096;2023-03-01T04:00:45;1.60;99.90
65404;DHT22;52014;52.088;5.096;2023-03-01T04:03:11;1.50;99.90
65404;DHT22;52014;52.088;5.096;2023-03-01T04:05:37;1.60;99.90
65404;DHT22;52014;52.088;5.096;2023-03-01T04:08:03;1.60;99.90
65404;DHT22;52014;52.088;5.096;2023-03-01T04:10:33;1.50;99.90
65404;DHT22;52014;52.088;5.096;2023-03-01T04:12:59;1.60;99.90
65404;DHT22;52014;52.088;5.096;2023-03-01T04:15:25;1.50;99.90
65404;DHT22;52014;52.088;5.096;2023-03-01T04:17:51;1.50;99.90
65404;DHT22;52014;52.088;5.096;2023-03-01T04:20:22;1.50;99.90
65404;DHT22;52014;52.088;5.096;2023-03-01T04:23:12;1.40;99.90
65404;DHT22;52014;52.088;5.096;2023-03-01T04:25:48;1.40;99.90
65404;DHT22;52014;52.088;5.096;2023-03-01T04:28:36;1.50;99.90
65404;DHT22;52014;52.088;5.096;2023-03-01T04:31:05;1.50;99.90
65404;DHT22;52014;52.088;5.096;2023-03-01T04:33:48;1.50;99.90
65404;DHT22;52014;52.088;5.096;2023-03-01T04:36:14;1.40;99.90
65404;DHT22;52014;52.088;5.096;2023-03-01T04:38:40;1.40;99.90
65404;DHT22;52014;52.088;5.096;2023-03-01T04:41:07;1.40;99.90
65404;DHT22;52014;52.088;5.096;2023-03-01T04:43:33;1.40;99.90
65404;DHT22;52014;52.088;5.096;2023-03-01T04:46:10;1.40;99.90
65404;DHT22;52014;52.088;5.096;2023-03-01T04:48:37;1.50;99.90
65404;DHT22;52014;52.088;5.096;2023-03-01T04:51:02;1.50;99.90
65404;DHT22;52014;52.088;5.096;2023-03-01T04:53:28;1.50;99.90
65404;DHT22;52014;52.088;5.096;2023-03-01T04:55:54;1.40;99.90
65404;DHT22;52014;52.088;5.096;2023-03-01T04:58:22;1.50;99.90
65404;DHT22;52014;52.088;5.096;2023-03-01T05:00:47;1.40;99.90
65404;DHT22;52014;52.088;5.096;2023-03-01T05:03:13;1.50;99.90
65404;DHT22;52014;52.088;5.096;2023-03-01T05:05:43;1.50;99.90
65404;DHT22;52014;52.088;5.096;2023-03-01T05:08:09;1.50;99.90
65404;DHT22;52014;52.088;5.096;2023-03-01T05:10:43;1.50;99.90
65404;DHT22;52014;52.088;5.096;2023-03-01T05:13:08;1.50;99.90
65404;DHT22;52014;52.088;5.096;2023-03-01T05:15:34;1.50;99.90
65404;DHT22;52014;52.088;5.096;2023-03-01T05:18:01;1.50;99.90
65404;DHT22;52014;52.088;5.096;2023-03-01T05:20:28;1.60;99.90
65404;DHT22;52014;52.088;5.096;2023-03-01T05:22:55;1.60;99.90
65404;DHT22;52014;52.088;5.096;2023-03-01T05:25:20;1.50;99.90
65404;DHT22;52014;52.088;5.096;2023-03-01T05:27:46;1.50;99.90
65404;DHT22;52014;52.088;5.096;2023-03-01T05:30:12;1.50;99.90
65404;DHT22;52014;52.088;5.096;2023-03-01T05:32:41;1.40;99.90
65404;DHT22;52014;52.088;5.096;2023-03-01T05:35:08;1.40;99.90
65404;DHT22;52014;52.088;5.096;2023-03-01T05:37:34;1.40;99.90
65404;DHT22;52014;52.088;5.096;2023-03-01T05:40:01;1.50;99.90
65404;DHT22;52014;52.088;5.096;2023-03-01T05:42:26;1.40;99.90
65404;DHT22;52014;52.088;5.096;2023-03-01T05:44:51;1.40;99.90
65404;DHT22;52014;52.088;5.096;2023-03-01T05:47:17;1.40;99.90
65404;DHT22;52014;52.088;5.096;2023-03-01T05:49:42;1.40;99.90
65404;DHT22;52014;52.088;5.096;2023-03-01T05:52:08;1.40;99.90
65404;DHT22;52014;52.088;5.096;2023-03-01T05:54:33;1.30;99.90
65404;DHT22;52014;52.088;5.096;2023-03-01T05:56:59;1.30;99.90
65404;DHT22;52014;52.088;5.096;2023-03-01T05:59:24;1.40;99.90
65404;DHT22;52014;52.088;5.096;2023-03-01T06:01:50;1.40;99.90
65404;DHT22;52014;52.088;5.096;2023-03-01T06:04:15;1.40;99.90
65404;DHT22;52014;52.088;5.096;2023-03-01T06:06:40;1.30;99.90
65404;DHT22;52014;52.088;5.096;2023-03-01T06:09:06;1.30;99.90
65404;DHT22;52014;52.088;5.096;2023-03-01T06:11:35;1.30;99.90
65404;DHT22;52014;52.088;5.096;2023-03-01T06:14:01;1.30;99.90
65404;DHT22;52014;52.088;5.096;2023-03-01T06:16:26;1.40;99.90
65404;DHT22;52014;52.088;5.096;2023-03-01T06:18:52;1.30;99.90
65404;DHT22;52014;52.088;5.096;2023-03-01T06:21:17;1.30;99.90
65404;DHT22;52014;52.088;5.096;2023-03-01T06:23:43;1.40;99.90
65404;DHT22;52014;52.088;5.096;2023-03-01T06:26:08;1.30;99.90
65404;DHT22;52014;52.088;5.096;2023-03-01T06:28:34;1.30;99.90
65404;DHT22;52014;52.088;5.096;2023-03-01T06:31:00;1.40;99.90
65404;DHT22;52014;52.088;5.096;2023-03-01T06:33:25;1.40;99.90
65404;DHT22;52014;52.088;5.096;2023-03-01T06:35:51;1.30;99.90
65404;DHT22;52014;52.088;5.096;2023-03-01T06:38:16;1.40;99.90
65404;DHT22;52014;52.088;5.096;2023-03-01T06:40:44;1.40;99.90
65404;DHT22;52014;52.088;5.096;2023-03-01T06:43:10;1.40;99.90
65404;DHT22;52014;52.088;5.096;2023-03-01T06:45:36;1.40;99.90
65404;DHT22;52014;52.088;5.096;2023-03-01T06:48:03;1.50;99.90
65404;DHT22;52014;52.088;5.096;2023-03-01T06:50:28;1.40;99.90
65404;DHT22;52014;52.088;5.096;2023-03-01T06:52:57;1.40;99.90
65404;DHT22;52014;52.088;5.096;2023-03-01T06:55:23;1.40;99.90
65404;DHT22;52014;52.088;5.096;2023-03-01T06:57:48;1.50;99.90
65404;DHT22;52014;52.088;5.096;2023-03-01T07:00:14;1.40;99.90
65404;DHT22;52014;52.088;5.096;2023-03-01T07:02:39;1.40;99.90
65404;DHT22;52014;52.088;5.096;2023-03-01T07:05:05;1.40;99.90
65404;DHT22;52014;52.088;5.096;2023-03-01T07:07:30;1.40;99.90
65404;DHT22;52014;52.088;5.096;2023-03-01T07:09:56;1.40;99.90
65404;DHT22;52014;52.088;5.096;2023-03-01T07:12:21;1.40;99.90
65404;DHT22;52014;52.088;5.096;2023-03-01T07:14:47;1.40;99.90
65404;DHT22;52014;52.088;5.096;2023-03-01T07:17:13;1.40;99.90
65404;DHT22;52014;52.088;5.096;2023-03-01T07:19:38;1.60;99.90
65404;DHT22;52014;52.088;5.096;2023-03-01T07:22:04;1.50;99.90
65404;DHT22;52014;52.088;5.096;2023-03-01T07:24:29;1.50;99.90
65404;DHT22;52014;52.088;5.096;2023-03-01T07:26:55;1.60;99.90
65404;DHT22;52014;52.088;5.096;2023-03-01T07:29:20;1.60;99.90
65404;DHT22;52014;52.088;5.096;2023-03-01T07:31:46;1.60;99.90
65404;DHT22;52014;52.088;5.096;2023-03-01T07:34:11;1.60;99.90
65404;DHT22;52014;52.088;5.096;2023-03-01T07:36:37;1.70;99.90
65404;DHT22;52014;52.088;5.096;2023-03-01T07:39:03;1.70;99.90
65404;DHT22;52014;52.088;5.096;2023-03-01T07:41:28;1.70;99.90
65404;DHT22;52014;52.088;5.096;2023-03-01T07:43:54;1.80;99.90
65404;DHT22;52014;52.088;5.096;2023-03-01T07:46:19;1.80;99.90
65404;DHT22;52014;52.088;5.096;2023-03-01T07:48:45;2.00;99.90
65404;DHT22;52014;52.088;5.096;2023-03-01T07:51:11;2.00;99.90
65404;DHT22;52014;52.088;5.096;2023-03-01T07:53:36;2.00;99.90
65404;DHT22;52014;52.088;5.096;2023-03-01T07:58:27;2.20;99.90
65404;DHT22;52014;52.088;5.096;2023-03-01T08:00:53;2.30;99.90
65404;DHT22;52014;52.088;5.096;2023-03-01T08:03:18;2.30;99.90
65404;DHT22;52014;52.088;5.096;2023-03-01T08:05:43;2.30;99.90
65404;DHT22;52014;52.088;5.096;2023-03-01T08:08:09;2.40;99.90
65404;DHT22;52014;52.088;5.096;2023-03-01T08:10:35;2.50;99.90
65404;DHT22;52014;52.088;5.096;2023-03-01T08:13:01;2.50;99.90
65404;DHT22;52014;52.088;5.096;2023-03-01T08:15:26;2.50;99.90
65404;DHT22;52014;52.088;5.096;2023-03-01T08:17:52;2.60;99.90
65404;DHT22;52014;52.088;5.096;2023-03-01T08:20:17;2.60;99.90
65404;DHT22;52014;52.088;5.096;2023-03-01T08:22:42;2.60;99.90
65404;DHT22;52014;52.088;5.096;2023-03-01T08:25:08;2.70;99.90
65404;DHT22;52014;52.088;5.096;2023-03-01T08:27:33;2.80;99.90
65404;DHT22;52014;52.088;5.096;2023-03-01T08:29:59;3.80;99.90
65404;DHT22;52014;52.088;5.096;2023-03-01T08:32:24;4.80;99.90
65404;DHT22;52014;52.088;5.096;2023-03-01T08:34:50;4.80;99.90
65404;DHT22;52014;52.088;5.096;2023-03-01T08:37:15;5.10;99.90
65404;DHT22;52014;52.088;5.096;2023-03-01T08:39:41;5.20;99.90
65404;DHT22;52014;52.088;5.096;2023-03-01T08:42:06;4.70;99.90
65404;DHT22;52014;52.088;5.096;2023-03-01T08:44:32;4.10;99.90
65404;DHT22;52014;52.088;5.096;2023-03-01T08:46:58;3.90;99.90
65404;DHT22;52014;52.088;5.096;2023-03-01T08:49:25;3.90;99.90
65404;DHT22;52014;52.088;5.096;2023-03-01T08:51:50;3.80;99.90
65404;DHT22;52014;52.088;5.096;2023-03-01T08:54:17;4.00;99.90
65404;DHT22;52014;52.088;5.096;2023-03-01T08:56:43;4.50;99.90
65404;DHT22;52014;52.088;5.096;2023-03-01T08:59:09;4.50;99.90
65404;DHT22;52014;52.088;5.096;2023-03-01T09:01:34;4.20;99.90
65404;DHT22;52014;52.088;5.096;2023-03-01T09:04:01;4.50;99.90
65404;DHT22;52014;52.088;5.096;2023-03-01T09:06:27;5.00;99.90
65404;DHT22;52014;52.088;5.096;2023-03-01T09:08:55;5.20;99.90
65404;DHT22;52014;52.088;5.096;2023-03-01T09:11:20;5.40;99.90
65404;DHT22;52014;52.088;5.096;2023-03-01T09:13:47;4.80;99.90
65404;DHT22;52014;52.088;5.096;2023-03-01T09:16:14;5.00;99.90
65404;DHT22;52014;52.088;5.096;2023-03-01T09:18:39;4.70;99.90
65404;DHT22;52014;52.088;5.096;2023-03-01T09:21:06;4.40;99.90
65404;DHT22;52014;52.088;5.096;2023-03-01T09:23:33;4.30;99.90
65404;DHT22;52014;52.088;5.096;2023-03-01T09:25:59;4.20;99.90
65404;DHT22;52014;52.088;5.096;2023-03-01T09:28:25;4.20;99.90
65404;DHT22;52014;52.088;5.096;2023-03-01T09:30:50;4.30;99.90
65404;DHT22;52014;52.088;5.096;2023-03-01T09:33:16;4.30;99.90
65404;DHT22;52014;52.088;5.096;2023-03-01T09:35:41;4.20;99.90
65404;DHT22;52014;52.088;5.096;2023-03-01T09:38:11;4.20;99.90
65404;DHT22;52014;52.088;5.096;2023-03-01T09:40:37;4.20;99.90
65404;DHT22;52014;52.088;5.096;2023-03-01T09:45:52;4.10;99.90
65404;DHT22;52014;52.088;5.096;2023-03-01T09:48:19;4.10;99.90
65404;DHT22;52014;52.088;5.096;2023-03-01T09:50:47;4.20;99.90
65404;DHT22;52014;52.088;5.096;2023-03-01T09:53:15;4.20;99.90
65404;DHT22;52014;52.088;5.096;2023-03-01T09:58:21;4.20;99.90
65404;DHT22;52014;52.088;5.096;2023-03-01T10:00:50;4.30;99.90
65404;DHT22;52014;52.088;5.096;2023-03-01T10:03:24;4.50;99.90
65404;DHT22;52014;52.088;5.096;2023-03-01T10:06:09;4.50;99.90
65404;DHT22;52014;52.088;5.096;2023-03-01T10:08:38;4.60;99.90
65404;DHT22;52014;52.088;5.096;2023-03-01T10:11:20;4.60;99.90
65404;DHT22;52014;52.088;5.096;2023-03-01T10:18:59;4.70;99.90
65404;DHT22;52014;52.088;5.096;2023-03-01T10:21:27;4.70;99.90
65404;DHT22;52014;52.088;5.096;2023-03-01T10:23:52;4.70;99.90
65404;DHT22;52014;52.088;5.096;2023-03-01T10:26:28;4.80;99.90
65404;DHT22;52014;52.088;5.096;2023-03-01T10:31:38;5.00;99.90
65404;DHT22;52014;52.088;5.096;2023-03-01T10:34:07;5.00;99.90
65404;DHT22;52014;52.088;5.096;2023-03-01T10:36:33;5.00;99.90
65404;DHT22;52014;52.088;5.096;2023-03-01T10:38:59;5.00;99.90
65404;DHT22;52014;52.088;5.096;2023-03-01T10:41:25;5.00;99.90
65404;DHT22;52014;52.088;5.096;2023-03-01T10:43:52;5.00;99.90
65404;DHT22;52014;52.088;5.096;2023-03-01T10:46:23;5.10;99.90
65404;DHT22;52014;52.088;5.096;2023-03-01T10:49:05;5.10;99.90
65404;DHT22;52014;52.088;5.096;2023-03-01T10:51:31;5.10;99.90
65404;DHT22;52014;52.088;5.096;2023-03-01T10:53:57;5.10;99.90
65404;DHT22;52014;52.088;5.096;2023-03-01T10:56:22;5.00;99.90
65404;DHT22;52014;52.088;5.096;2023-03-01T10:59:01;5.10;99.90
65404;DHT22;52014;52.088;5.096;2023-03-01T11:01:28;5.20;99.90
65404;DHT22;52014;52.088;5.096;2023-03-01T11:06:32;5.20;99.90
65404;DHT22;52014;52.088;5.096;2023-03-01T11:09:01;5.20;99.90
65404;DHT22;52014;52.088;5.096;2023-03-01T11:11:38;5.30;99.90
65404;DHT22;52014;52.088;5.096;2023-03-01T11:16:34;5.20;99.90
65404;DHT22;52014;52.088;5.096;2023-03-01T11:21:35;5.30;99.90
65404;DHT22;52014;52.088;5.096;2023-03-01T11:24:02;5.40;99.90
65404;DHT22;52014;52.088;5.096;2023-03-01T11:26:30;5.50;99.90
65404;DHT22;52014;52.088;5.096;2023-03-01T11:28:56;5.40;99.90
65404;DHT22;52014;52.088;5.096;2023-03-01T11:31:23;5.40;99.90
65404;DHT22;52014;52.088;5.096;2023-03-01T11:34:05;5.50;99.90
65404;DHT22;52014;52.088;5.096;2023-03-01T11:39:02;5.50;99.90
65404;DHT22;52014;52.088;5.096;2023-03-01T11:41:30;5.50;99.90
65404;DHT22;52014;52.088;5.096;2023-03-01T11:44:00;5.50;99.90
65404;DHT22;52014;52.088;5.096;2023-03-01T11:46:29;5.50;99.90
65404;DHT22;52014;52.088;5.096;2023-03-01T11:51:25;5.60;99.90
65404;DHT22;52014;52.088;5.096;2023-03-01T11:54:01;5.60;99.90
65404;DHT22;52014;52.088;5.096;2023-03-01T11:56:38;5.60;99.90
65404;DHT22;52014;52.088;5.096;2023-03-01T12:10:20;5.80;99.90
65404;DHT22;52014;52.088;5.096;2023-03-01T12:15:22;5.70;99.90
65404;DHT22;52014;52.088;5.096;2023-03-01T12:18:27;5.70;99.90
65404;DHT22;52014;52.088;5.096;2023-03-01T12:23:52;5.80;99.90
65404;DHT22;52014;52.088;5.096;2023-03-01T12:34:13;5.90;99.90
65404;DHT22;52014;52.088;5.096;2023-03-01T12:37:08;6.00;99.90
65404;DHT22;52014;52.088;5.096;2023-03-01T12:42:30;6.10;99.90
65404;DHT22;52014;52.088;5.096;2023-03-01T12:45:05;6.00;99.90
65404;DHT22;52014;52.088;5.096;2023-03-01T12:50:23;6.00;99.90
65404;DHT22;52014;52.088;5.096;2023-03-01T12:52:57;6.00;99.90
65404;DHT22;52014;52.088;5.096;2023-03-01T12:55:29;6.30;99.90
65404;DHT22;52014;52.088;5.096;2023-03-01T13:03:02;6.20;99.90
65404;DHT22;52014;52.088;5.096;2023-03-01T13:05:56;6.20;99.90
65404;DHT22;52014;52.088;5.096;2023-03-01T13:08:27;6.30;99.90
65404;DHT22;52014;52.088;5.096;2023-03-01T13:10:56;6.40;99.90
65404;DHT22;52014;52.088;5.096;2023-03-01T13:13:25;6.30;99.90
65404;DHT22;52014;52.088;5.096;2023-03-01T13:15:51;6.40;99.90
65404;DHT22;52014;52.088;5.096;2023-03-01T13:20:45;6.30;99.90
65404;DHT22;52014;52.088;5.096;2023-03-01T13:31:02;6.40;99.90
65404;DHT22;52014;52.088;5.096;2023-03-01T13:35:54;6.40;99.90
65404;DHT22;52014;52.088;5.096;2023-03-01T13:41:04;6.50;99.90
65404;DHT22;52014;52.088;5.096;2023-03-01T13:43:31;6.50;99.90
65404;DHT22;52014;52.088;5.096;2023-03-01T13:45:57;6.60;99.90
65404;DHT22;52014;52.088;5.096;2023-03-01T13:48:24;6.50;99.90
65404;DHT22;52014;52.088;5.096;2023-03-01T13:50:51;6.50;99.90
65404;DHT22;52014;52.088;5.096;2023-03-01T13:53:18;6.60;99.90
65404;DHT22;52014;52.088;5.096;2023-03-01T13:55:48;6.50;99.90
65404;DHT22;52014;52.088;5.096;2023-03-01T13:58:16;6.60;99.90
65404;DHT22;52014;52.088;5.096;2023-03-01T14:00:42;6.50;99.90
65404;DHT22;52014;52.088;5.096;2023-03-01T14:03:12;6.60;99.90
65404;DHT22;52014;52.088;5.096;2023-03-01T14:05:39;6.60;99.90
65404;DHT22;52014;52.088;5.096;2023-03-01T14:08:14;6.60;99.90
65404;DHT22;52014;52.088;5.096;2023-03-01T14:10:54;6.60;99.90
65404;DHT22;52014;52.088;5.096;2023-03-01T14:16:32;6.60;99.90
65404;DHT22;52014;52.088;5.096;2023-03-01T14:21:27;6.80;99.90
65404;DHT22;52014;52.088;5.096;2023-03-01T14:23:52;6.70;99.90
65404;DHT22;52014;52.088;5.096;2023-03-01T14:29:24;6.70;99.90
65404;DHT22;52014;52.088;5.096;2023-03-01T14:31:49;6.70;99.90
65404;DHT22;52014;52.088;5.096;2023-03-01T14:34:21;6.70;99.90
65404;DHT22;52014;52.088;5.096;2023-03-01T14:36:47;6.70;99.90
65404;DHT22;52014;52.088;5.096;2023-03-01T14:39:16;6.80;99.90
65404;DHT22;52014;52.088;5.096;2023-03-01T14:41:42;6.80;99.90
65404;DHT22;52014;52.088;5.096;2023-03-01T14:44:11;6.90;99.90
65404;DHT22;52014;52.088;5.096;2023-03-01T14:46:38;6.90;99.90
65404;DHT22;52014;52.088;5.096;2023-03-01T14:49:09;6.80;99.90
65404;DHT22;52014;52.088;5.096;2023-03-01T14:51:37;6.90;99.90
65404;DHT22;52014;52.088;5.096;2023-03-01T14:54:03;6.80;99.90
65404;DHT22;52014;52.088;5.096;2023-03-01T14:56:42;6.80;99.90
65404;DHT22;52014;52.088;5.096;2023-03-01T14:59:08;6.80;99.90
65404;DHT22;52014;52.088;5.096;2023-03-01T15:01:34;6.80;99.90
65404;DHT22;52014;52.088;5.096;2023-03-01T15:03:59;6.80;99.90
65404;DHT22;52014;52.088;5.096;2023-03-01T15:06:26;6.80;99.90
65404;DHT22;52014;52.088;5.096;2023-03-01T15:08:52;6.80;99.90
65404;DHT22;52014;52.088;5.096;2023-03-01T15:11:28;6.80;99.90
65404;DHT22;52014;52.088;5.096;2023-03-01T15:13:54;6.80;99.90
65404;DHT22;52014;52.088;5.096;2023-03-01T15:16:26;6.70;99.90
65404;DHT22;52014;52.088;5.096;2023-03-01T15:18:56;6.80;99.90
65404;DHT22;52014;52.088;5.096;2023-03-01T15:21:25;6.80;99.90
65404;DHT22;52014;52.088;5.096;2023-03-01T15:23:54;6.80;99.90
65404;DHT22;52014;52.088;5.096;2023-03-01T15:26:30;6.80;99.90
65404;DHT22;52014;52.088;5.096;2023-03-01T15:28:58;6.80;99.90
65404;DHT22;52014;52.088;5.096;2023-03-01T15:31:25;6.70;99.90
65404;DHT22;52014;52.088;5.096;2023-03-01T15:33:51;6.70;99.90
65404;DHT22;52014;52.088;5.096;2023-03-01T15:36:31;6.70;99.90
65404;DHT22;52014;52.088;5.096;2023-03-01T15:38:57;6.70;99.90
65404;DHT22;52014;52.088;5.096;2023-03-01T15:41:26;6.70;99.90
65404;DHT22;52014;52.088;5.096;2023-03-01T15:43:52;6.70;99.90
65404;DHT22;52014;52.088;5.096;2023-03-01T15:46:27;6.80;99.90
65404;DHT22;52014;52.088;5.096;2023-03-01T15:48:57;6.80;99.90
65404;DHT22;52014;52.088;5.096;2023-03-01T15:51:30;6.70;99.90
65404;DHT22;52014;52.088;5.096;2023-03-01T15:53:58;6.70;99.90
65404;DHT22;52014;52.088;5.096;2023-03-01T15:56:24;6.70;99.90
65404;DHT22;52014;52.088;5.096;2023-03-01T15:58:50;6.60;99.90
65404;DHT22;52014;52.088;5.096;2023-03-01T16:01:16;6.60;99.90
65404;DHT22;52014;52.088;5.096;2023-03-01T16:03:42;6.70;99.90
65404;DHT22;52014;52.088;5.096;2023-03-01T16:06:10;6.60;99.90
65404;DHT22;52014;52.088;5.096;2023-03-01T16:08:37;6.60;99.90
65404;DHT22;52014;52.088;5.096;2023-03-01T16:11:03;6.50;99.90
65404;DHT22;52014;52.088;5.096;2023-03-01T16:13:31;6.50;99.90
65404;DHT22;52014;52.088;5.096;2023-03-01T16:15:57;6.50;99.90
65404;DHT22;52014;52.088;5.096;2023-03-01T16:18:22;6.50;99.90
65404;DHT22;52014;52.088;5.096;2023-03-01T16:20:48;6.40;99.90
65404;DHT22;52014;52.088;5.096;2023-03-01T16:23:14;6.40;99.90
65404;DHT22;52014;52.088;5.096;2023-03-01T16:25:39;6.40;99.90
65404;DHT22;52014;52.088;5.096;2023-03-01T16:28:05;6.30;99.90
65404;DHT22;52014;52.088;5.096;2023-03-01T16:30:34;6.30;99.90
65404;DHT22;52014;52.088;5.096;2023-03-01T16:33:00;6.30;99.90
65404;DHT22;52014;52.088;5.096;2023-03-01T16:35:26;6.40;99.90
65404;DHT22;52014;52.088;5.096;2023-03-01T16:37:52;6.30;99.90
65404;DHT22;52014;52.088;5.096;2023-03-01T16:40:21;6.20;99.90
65404;DHT22;52014;52.088;5.096;2023-03-01T16:42:48;6.20;99.90
65404;DHT22;52014;52.088;5.096;2023-03-01T16:45:13;6.20;99.90
65404;DHT22;52014;52.088;5.096;2023-03-01T16:47:39;6.20;99.90
65404;DHT22;52014;52.088;5.096;2023-03-01T16:50:04;6.20;99.90
65404;DHT22;52014;52.088;5.096;2023-03-01T16:52:30;6.20;99.90
65404;DHT22;52014;52.088;5.096;2023-03-01T16:54:55;6.30;99.90
65404;DHT22;52014;52.088;5.096;2023-03-01T16:57:21;6.10;99.90
65404;DHT22;52014;52.088;5.096;2023-03-01T16:59:46;6.10;99.90
65404;DHT22;52014;52.088;5.096;2023-03-01T17:02:12;6.10;99.90
65404;DHT22;52014;52.088;5.096;2023-03-01T17:04:40;6.00;99.90
65404;DHT22;52014;52.088;5.096;2023-03-01T17:07:05;6.00;99.90
65404;DHT22;52014;52.088;5.096;2023-03-01T17:09:34;6.00;99.90
65404;DHT22;52014;52.088;5.096;2023-03-01T17:11:59;5.90;99.90
65404;DHT22;52014;52.088;5.096;2023-03-01T17:14:25;5.90;99.90
65404;DHT22;52014;52.088;5.096;2023-03-01T17:16:50;5.80;99.90
65404;DHT22;52014;52.088;5.096;2023-03-01T17:19:18;5.80;99.90
65404;DHT22;52014;52.088;5.096;2023-03-01T17:21:44;5.80;99.90
65404;DHT22;52014;52.088;5.096;2023-03-01T17:24:10;5.70;99.90
65404;DHT22;52014;52.088;5.096;2023-03-01T17:26:35;5.70;99.90